Terminal Aerodrome Forecast
Issued by NWS Hastings, NE

Home | Current Version | Previous Version | Text Only | Print | Product List | Glossary On
Versions: 1 2 3 4 5 6 7 8 9 10 11 12
000
FTUS43 KGID 030535
TAFGRI
TAF
KGRI 030535Z 0306/0406 VRB05KT P6SM FEW050 BKN100
     FM031500 19012KT P6SM SCT008 OVC030
     FM032300 17008KT P6SM SCT003 BKN015
     FM040300 19006KT P6SM SCT003 BKN008=

USA.gov is the U.S. government's official web portal to all federal, state and local government web resources and services.